Time;durP1;ratioP1;P1;durP2;ratioP2;P2;SDS_P1;SDS_P2;PMS_P1;PMS_P2;Temp;Humidity;BMP_temperature;BMP_pressure;BME280_temperature;BME280_humidity;BME280_pressure;Samples;Min_cycle;Max_cycle;Signal;HPM_P1;HPM_P2
2021/04/13 00:01:23;;;;;;;3.90;3.60;;;;;;;5.43;67.39;96561.97;5043434;28;20218;-81
2021/04/13 00:03:54;;;;;;;4.00;3.60;;;;;;;5.44;67.24;96561.03;5030787;28;20233;-81
2021/04/13 00:06:25;;;;;;;4.70;3.47;;;;;;;5.49;67.55;96562.31;5050497;28;20247;-79
2021/04/13 00:08:55;;;;;;;4.77;3.50;;;;;;;5.53;67.05;96558.59;5049610;28;20233;-81
2021/04/13 00:11:22;;;;;;;4.10;3.70;;;;;;;5.51;67.36;96567.28;5037744;28;20233;-79
2021/04/13 00:13:51;;;;;;;3.70;3.40;;;;;;;5.48;67.01;96557.31;5049840;28;20240;-80
2021/04/13 00:16:19;;;;;;;3.67;3.37;;;;;;;5.38;67.25;96561.53;5050168;28;20596;-81
2021/04/13 00:18:46;;;;;;;3.83;3.43;;;;;;;5.46;67.05;96559.19;5050027;28;20217;-79
2021/04/13 00:21:16;;;;;;;3.47;3.17;;;;;;;5.50;66.59;96563.94;5041234;28;20233;-80
2021/04/13 00:23:43;;;;;;;3.80;3.30;;;;;;;5.48;66.52;96562.44;5029298;28;20263;-80
2021/04/13 00:26:11;;;;;;;3.73;3.43;;;;;;;5.44;66.65;96561.03;5043314;28;20225;-81
2021/04/13 00:28:44;;;;;;;4.67;3.40;;;;;;;5.40;67.35;96562.22;5037934;28;20202;-79
2021/04/13 00:31:19;;;;;;;3.60;3.30;;;;;;;5.43;67.13;96562.78;5039181;28;20202;-80
2021/04/13 00:33:45;;;;;;;3.30;3.00;;;;;;;5.41;67.39;96562.09;5033598;28;20286;-79
2021/04/13 00:36:16;;;;;;;5.17;3.30;;;;;;;5.46;67.11;96564.28;5040407;28;20226;-79
2021/04/13 00:38:43;;;;;;;3.87;3.13;;;;;;;5.40;66.82;96560.47;5033378;28;20230;-80
2021/04/13 00:41:17;;;;;;;3.70;3.40;;;;;;;5.35;67.06;96557.47;5040163;28;20221;-79
2021/04/13 00:43:48;;;;;;;3.60;3.23;;;;;;;5.41;67.02;96563.81;5033407;28;20214;-79
2021/04/13 00:46:20;;;;;;;4.40;3.70;;;;;;;5.34;66.95;96566.06;5050111;28;20205;-80
2021/04/13 00:48:46;;;;;;;3.17;2.87;;;;;;;5.32;66.77;96559.47;5051566;28;20229;-78
2021/04/13 00:51:22;;;;;;;3.20;2.90;;;;;;;5.19;67.33;96562.97;5033475;28;20666;-80
2021/04/13 00:53:51;;;;;;;4.87;3.50;;;;;;;5.10;67.35;96561.13;5033582;28;20295;-80
2021/04/13 00:56:19;;;;;;;3.27;2.97;;;;;;;5.03;67.62;96566.81;5053097;28;20279;-81
2021/04/13 00:58:48;;;;;;;3.53;3.23;;;;;;;5.03;68.08;96571.91;5052661;28;20205;-79
2021/04/13 01:01:20;;;;;;;4.70;3.27;;;;;;;5.03;68.83;96561.69;5051840;28;20201;-80
2021/04/13 01:03:48;;;;;;;3.80;3.30;;;;;;;5.05;69.02;96570.06;5052813;28;20256;-79
2021/04/13 01:06:27;;;;;;;3.70;3.40;;;;;;;5.12;68.80;96576.31;5051976;28;20235;-79
2021/04/13 01:09:04;;;;;;;3.50;3.20;;;;;;;5.08;68.96;96569.81;5052491;28;20225;-80
2021/04/13 01:11:40;;;;;;;3.80;3.50;;;;;;;5.11;69.40;96567.84;5032703;28;20249;-79
2021/04/13 01:14:07;;;;;;;4.33;3.93;;;;;;;5.08;70.00;96569.81;5035720;28;20228;-80
2021/04/13 01:16:38;;;;;;;4.17;3.77;;;;;;;5.17;70.04;96569.13;5053590;28;20255;-79
2021/04/13 01:19:12;;;;;;;3.87;3.57;;;;;;;5.07;70.04;96570.75;5052599;28;20237;-80
2021/04/13 01:21:51;;;;;;;3.63;3.33;;;;;;;5.01;70.59;96572.03;5052916;28;20783;-81
2021/04/13 01:24:23;;;;;;;3.63;3.33;;;;;;;5.00;70.17;96575.53;5050621;28;20244;-81
2021/04/13 01:26:51;;;;;;;3.70;3.33;;;;;;;4.91;70.62;96576.22;5052569;28;20236;-79
2021/04/13 01:29:21;;;;;;;4.20;3.80;;;;;;;4.84;71.33;96569.97;5046797;28;20226;-80
2021/04/13 01:31:52;;;;;;;4.13;3.73;;;;;;;4.97;71.04;96570.66;5033473;28;20726;-81
2021/04/13 01:34:23;;;;;;;4.10;3.70;;;;;;;5.03;70.72;96559.16;5051644;28;20229;-79
2021/04/13 01:37:06;;;;;;;4.10;3.70;;;;;;;4.99;71.28;96571.38;5052830;28;20823;-81
2021/04/13 01:39:42;;;;;;;4.00;3.70;;;;;;;4.94;71.17;96568.34;5044678;28;20744;-80
2021/04/13 01:42:09;;;;;;;4.00;3.70;;;;;;;4.99;71.72;96566.25;5032576;28;20672;-79
2021/04/13 01:44:39;;;;;;;4.30;4.00;;;;;;;5.03;71.94;96565.06;5037703;28;20850;-80
2021/04/13 01:47:07;;;;;;;4.07;3.77;;;;;;;5.03;72.09;96561.69;5031501;28;20229;-81
2021/04/13 01:49:40;;;;;;;4.57;4.17;;;;;;;5.03;72.05;96562.50;5041771;28;20589;-79
2021/04/13 01:52:10;;;;;;;4.27;3.87;;;;;;;5.05;71.71;96559.84;5044809;28;20226;-79
2021/04/13 01:54:38;;;;;;;4.43;4.07;;;;;;;5.07;72.00;96561.34;5033013;28;20218;-80
2021/04/13 01:57:16;;;;;;;5.30;4.23;;;;;;;5.11;71.87;96561.94;5045799;28;20232;-81
2021/04/13 01:59:50;;;;;;;4.50;4.10;;;;;;;5.11;72.09;96565.31;5041387;28;20715;-81
2021/04/13 02:02:26;;;;;;;4.27;3.97;;;;;;;5.14;71.67;96566.81;5033635;28;20233;-80
2021/04/13 02:04:56;;;;;;;4.87;4.47;;;;;;;5.10;71.97;96558.56;5049446;28;20319;-81
2021/04/13 02:07:38;;;;;;;4.57;4.17;;;;;;;5.09;72.57;96559.50;5057511;28;20233;-80
2021/04/13 02:10:20;;;;;;;4.70;4.30;;;;;;;5.08;72.36;96562.97;5042381;28;20218;-80
2021/04/13 02:12:49;;;;;;;4.83;4.30;;;;;;;4.98;73.08;96564.63;5055576;28;20235;-80
2021/04/13 02:15:23;;;;;;;4.60;4.20;;;;;;;5.07;72.98;96563.91;5054698;28;20221;-80
2021/04/13 02:17:56;;;;;;;4.33;3.97;;;;;;;4.99;72.91;96561.16;5056142;28;20212;-79
2021/04/13 02:20:28;;;;;;;4.60;4.20;;;;;;;5.05;72.24;96557.28;5041456;28;20234;-80
2021/04/13 02:22:55;;;;;;;4.73;4.33;;;;;;;5.02;72.18;96549.88;5036107;28;20288;-80
2021/04/13 02:25:25;;;;;;;5.13;4.20;;;;;;;4.99;72.64;96555.25;5051325;28;20228;-80
2021/04/13 02:27:53;;;;;;;4.63;4.23;;;;;;;5.00;73.03;96556.84;5037046;28;20241;-81
2021/04/13 02:30:29;;;;;;;6.10;4.80;;;;;;;5.06;72.83;96557.19;5035884;28;20225;-80
2021/04/13 02:32:57;;;;;;;4.80;4.40;;;;;;;5.12;72.55;96559.28;5045592;28;20248;-80
2021/04/13 02:35:25;;;;;;;4.80;4.40;;;;;;;5.09;72.40;96561.25;5055831;28;20245;-80
2021/04/13 02:37:54;;;;;;;5.20;4.80;;;;;;;5.10;72.83;96556.03;5055996;28;20288;-81
2021/04/13 02:40:26;;;;;;;7.10;6.40;;;;;;;5.15;72.54;96555.66;5036860;28;20673;-81
2021/04/13 02:42:55;;;;;;;14.87;12.53;;;;;;;5.21;72.88;96555.97;5035821;28;20234;-79
2021/04/13 02:45:31;;;;;;;6.23;5.33;;;;;;;5.16;72.75;96547.91;5055237;28;20229;-80
2021/04/13 02:48:04;;;;;;;5.17;4.77;;;;;;;5.16;72.50;96549.63;5055058;28;20228;-79
2021/04/13 02:50:34;;;;;;;4.97;4.57;;;;;;;5.14;72.75;96556.59;5035272;28;20249;-83
2021/04/13 02:53:03;;;;;;;5.00;4.50;;;;;;;5.10;72.54;96555.22;5051691;28;20723;-79
2021/04/13 02:55:36;;;;;;;4.77;4.37;;;;;;;5.04;72.37;96551.38;5055384;28;20202;-81
2021/04/13 02:58:05;;;;;;;4.70;4.30;;;;;;;4.97;72.53;96549.44;5037477;28;20504;-80
2021/04/13 03:00:34;;;;;;;4.50;4.10;;;;;;;4.99;72.88;96550.13;5054060;28;20229;-80
2021/04/13 03:03:05;;;;;;;5.00;4.50;;;;;;;5.07;73.14;96548.59;5038600;28;20717;-79
2021/04/13 03:05:33;;;;;;;5.53;4.03;;;;;;;5.12;72.17;96546.50;5034275;28;20233;-81
2021/04/13 03:08:04;;;;;;;5.10;4.27;;;;;;;5.14;72.80;96543.84;5048933;28;20228;-79
2021/04/13 03:10:34;;;;;;;4.80;4.40;;;;;;;5.16;72.37;96547.91;5034532;28;20194;-81
2021/04/13 03:13:05;;;;;;;4.87;4.47;;;;;;;5.19;72.41;96550.22;5048283;28;20221;-81
2021/04/13 03:15:34;;;;;;;4.93;4.53;;;;;;;5.18;72.40;96538.38;5052296;28;20218;-80
2021/04/13 03:18:02;;;;;;;4.80;4.40;;;;;;;5.15;71.76;96548.81;5049347;28;20236;-78
2021/04/13 03:20:34;;;;;;;6.60;4.83;;;;;;;5.11;71.96;96546.63;5029997;28;20229;-79
2021/04/13 03:23:02;;;;;;;4.70;4.30;;;;;;;5.11;71.94;96550.00;5043346;28;20233;-81
2021/04/13 03:25:33;;;;;;;4.93;4.53;;;;;;;5.13;72.54;96547.31;5051047;28;20209;-80
2021/04/13 03:28:02;;;;;;;5.00;4.60;;;;;;;5.05;72.46;96547.91;5038216;28;20233;-79
2021/04/13 03:30:31;;;;;;;5.17;4.67;;;;;;;5.05;73.04;96537.69;5030236;28;20233;-81
2021/04/13 03:33:01;;;;;;;5.03;4.63;;;;;;;5.03;72.72;96537.00;5030462;28;20237;-78
2021/04/13 03:35:29;;;;;;;5.13;4.67;;;;;;;4.97;73.15;96544.34;5030555;28;20233;-81
2021/04/13 03:37:58;;;;;;;6.13;5.53;;;;;;;4.98;73.60;96536.56;5050524;28;20205;-81
2021/04/13 03:40:26;;;;;;;5.37;4.87;;;;;;;5.03;73.66;96531.88;5030925;28;20205;-80
2021/04/13 03:42:58;;;;;;;5.80;5.30;;;;;;;5.08;73.93;96537.47;5030748;28;20238;-80
2021/04/13 03:45:25;;;;;;;5.37;4.87;;;;;;;5.15;73.44;96540.34;5048926;28;20232;-78
2021/04/13 03:47:52;;;;;;;5.73;5.20;;;;;;;5.16;73.47;96532.56;5051089;28;20229;-81
2021/04/13 03:50:27;;;;;;;5.70;5.20;;;;;;;5.08;74.24;96539.19;5037894;28;20232;-81
2021/04/13 03:53:01;;;;;;;5.90;5.40;;;;;;;5.10;73.58;96539.88;5041526;28;20769;-81
2021/04/13 03:55:27;;;;;;;6.00;5.40;;;;;;;5.11;73.01;96544.88;5047758;28;20194;-80
2021/04/13 03:57:54;;;;;;;5.60;5.10;;;;;;;5.15;72.95;96533.50;5031114;28;20237;-79
2021/04/13 04:00:22;;;;;;;5.50;5.00;;;;;;;5.13;72.77;96532.00;5031462;28;20228;-79
2021/04/13 04:02:49;;;;;;;5.70;5.20;;;;;;;5.14;73.46;96543.84;5030931;28;20241;-80
2021/04/13 04:05:18;;;;;;;9.93;8.93;;;;;;;5.14;72.55;96548.94;5037719;28;20870;-81
2021/04/13 04:07:50;;;;;;;6.90;6.20;;;;;;;5.03;72.21;96544.66;5032237;28;20190;-80
2021/04/13 04:10:35;;;;;;;5.70;5.20;;;;;;;4.96;72.24;96537.59;5041749;28;20600;-80
2021/04/13 04:13:04;;;;;;;5.70;5.20;;;;;;;5.04;72.29;96545.47;5034748;28;20240;-80
2021/04/13 04:15:37;;;;;;;5.67;5.03;;;;;;;5.07;72.14;96548.59;5048272;28;20228;-79
2021/04/13 04:18:12;;;;;;;5.53;5.03;;;;;;;5.06;72.19;96541.88;5053510;28;20237;-80
2021/04/13 04:20:38;;;;;;;5.97;5.37;;;;;;;5.02;72.39;96545.59;5044220;28;20438;-80
2021/04/13 04:23:04;;;;;;;6.07;5.47;;;;;;;5.06;72.00;96544.41;5050880;28;20228;-80
2021/04/13 04:25:36;;;;;;;5.63;5.13;;;;;;;5.07;72.18;96546.03;5044608;28;20195;-79
2021/04/13 04:28:15;;;;;;;7.60;5.77;;;;;;;5.11;71.58;96550.00;5041176;28;20646;-84
2021/04/13 04:30:41;;;;;;;6.17;5.47;;;;;;;5.15;71.76;96546.28;5053104;28;20217;-79
2021/04/13 04:33:35;;;;;;;6.07;5.57;;;;;;;5.15;72.29;96550.56;5051432;28;20229;-80
2021/04/13 04:36:01;;;;;;;6.43;5.80;;;;;;;5.13;71.95;96553.22;5035906;28;20597;-80
2021/04/13 04:38:29;;;;;;;7.03;6.20;;;;;;;5.09;72.29;96545.94;5046877;28;20225;-79
2021/04/13 04:41:01;;;;;;;9.30;8.40;;;;;;;5.06;72.22;96562.28;5051408;28;20208;-81
2021/04/13 04:43:53;;;;;;;13.80;12.13;;;;;;;5.14;72.00;96557.41;5045778;28;20650;-79
2021/04/13 04:46:38;;;;;;;8.57;7.70;;;;;;;5.16;71.83;96557.28;5033823;28;20230;-79
2021/04/13 04:49:06;;;;;;;6.40;5.80;;;;;;;5.11;72.48;96562.75;5030547;28;20233;-80
2021/04/13 04:51:32;;;;;;;6.73;6.13;;;;;;;5.15;71.65;96564.13;5042179;28;20267;-80
2021/04/13 04:53:58;;;;;;;7.40;6.70;;;;;;;5.17;71.30;96564.84;5045770;28;20225;-79
2021/04/13 04:56:24;;;;;;;7.00;6.40;;;;;;;5.18;71.34;96566.47;5040836;28;20229;-81
2021/04/13 04:58:51;;;;;;;7.30;6.60;;;;;;;5.20;71.52;96564.56;5037065;28;20572;-80
2021/04/13 05:01:20;;;;;;;7.37;6.63;;;;;;;5.21;72.02;96571.31;5037960;28;20771;-79
2021/04/13 05:03:46;;;;;;;9.03;6.93;;;;;;;5.21;71.78;96573.84;5038096;28;20298;-80
2021/04/13 05:06:13;;;;;;;7.47;6.87;;;;;;;5.27;72.00;96571.75;5046447;28;20229;-80
2021/04/13 05:08:49;;;;;;;7.57;6.93;;;;;;;5.29;71.25;96575.81;5041144;28;20233;-81
2021/04/13 05:11:17;;;;;;;8.37;7.57;;;;;;;5.27;71.49;96576.88;5047269;28;20224;-81
2021/04/13 05:13:43;;;;;;;7.67;6.97;;;;;;;5.25;71.44;96574.44;5052562;28;20225;-79
2021/04/13 05:16:11;;;;;;;7.87;7.17;;;;;;;5.27;71.57;96577.69;5041781;28;20206;-78
2021/04/13 05:18:37;;;;;;;8.33;7.43;;;;;;;5.28;72.16;96578.50;5041905;28;20313;-80
2021/04/13 05:21:03;;;;;;;8.53;7.63;;;;;;;5.29;71.70;96578.38;5034698;28;20234;-81
2021/04/13 05:23:29;;;;;;;8.40;7.60;;;;;;;5.27;71.87;96580.22;5041399;28;20232;-81
2021/04/13 05:25:55;;;;;;;8.07;7.33;;;;;;;5.33;71.87;96579.78;5037780;28;20198;-80
2021/04/13 05:28:22;;;;;;;8.13;7.43;;;;;;;5.39;71.10;96581.81;5041609;28;20202;-81
2021/04/13 05:30:49;;;;;;;8.43;7.63;;;;;;;5.41;71.87;96576.59;5052500;28;20236;-79
2021/04/13 05:33:16;;;;;;;8.83;8.03;;;;;;;5.39;71.20;96581.81;5047912;28;20234;-80
2021/04/13 05:35:42;;;;;;;8.60;7.80;;;;;;;5.38;71.02;96585.34;5047336;28;20225;-80
2021/04/13 05:38:12;;;;;;;9.23;8.00;;;;;;;5.38;71.13;96589.63;5049795;28;20244;-79
2021/04/13 05:40:39;;;;;;;8.53;7.73;;;;;;;5.42;71.66;96589.25;5032451;28;20213;-80
2021/04/13 05:43:06;;;;;;;9.17;8.27;;;;;;;5.40;71.41;96585.19;5032627;28;20617;-79
2021/04/13 05:45:35;;;;;;;9.30;8.30;;;;;;;5.38;71.33;96587.06;5044577;28;20240;-80
2021/04/13 05:48:05;;;;;;;9.50;8.53;;;;;;;5.43;72.49;96590.88;5052363;28;20233;-81
2021/04/13 05:50:33;;;;;;;8.30;7.57;;;;;;;5.83;81.16;96595.41;5046707;28;20218;-81
2021/04/13 05:52:59;;;;;;;8.53;7.07;;;;;;;6.27;80.61;96594.41;5042617;28;20724;-82
2021/04/13 05:55:26;;;;;;;8.00;7.30;;;;;;;6.57;75.44;96599.56;5042371;28;20282;-80
2021/04/13 05:57:55;;;;;;;7.40;6.70;;;;;;;6.83;75.63;96599.97;5041963;28;20221;-81
2021/04/13 06:00:25;;;;;;;6.80;6.20;;;;;;;7.16;78.73;96595.50;5052926;28;20230;-81
2021/04/13 06:02:53;;;;;;;7.47;6.80;;;;;;;7.34;73.23;96593.09;5051835;28;20245;-80
2021/04/13 06:05:21;;;;;;;8.37;7.57;;;;;;;7.46;69.34;96600.56;5042812;28;20272;-79
2021/04/13 06:07:48;;;;;;;9.40;8.60;;;;;;;7.24;66.64;96600.78;5038201;28;20190;-80
2021/04/13 06:10:15;;;;;;;9.57;8.57;;;;;;;6.94;66.69;96602.41;5039869;28;20194;-81
2021/04/13 06:12:41;;;;;;;10.00;8.97;;;;;;;6.65;67.68;96604.06;5031563;28;20233;-81
2021/04/13 06:15:12;;;;;;;10.07;9.13;;;;;;;6.37;68.72;96602.94;5037630;28;20725;-79
2021/04/13 06:17:38;;;;;;;10.03;9.13;;;;;;;6.30;69.27;96604.41;5045765;28;20222;-80
2021/04/13 06:20:05;;;;;;;10.20;9.30;;;;;;;6.27;69.36;96608.94;5052112;28;20229;-79
2021/04/13 06:22:31;;;;;;;10.70;9.80;;;;;;;6.18;69.56;96607.94;5035670;28;20729;-80
2021/04/13 06:24:58;;;;;;;11.20;10.10;;;;;;;6.15;69.98;96609.00;5046442;28;20224;-80
2021/04/13 06:27:24;;;;;;;10.90;9.80;;;;;;;6.10;70.17;96607.75;5035538;28;20225;-81
2021/04/13 06:29:50;;;;;;;11.50;10.40;;;;;;;6.07;70.77;96613.09;5047314;28;20225;-81
2021/04/13 06:32:16;;;;;;;12.23;11.00;;;;;;;6.00;70.97;96609.41;5051960;28;20244;-81
2021/04/13 06:34:42;;;;;;;13.10;11.90;;;;;;;5.93;70.92;96610.84;5038384;28;20304;-80
2021/04/13 06:37:09;;;;;;;13.07;11.40;;;;;;;5.96;70.50;96610.63;5042760;28;20204;-80
2021/04/13 06:39:38;;;;;;;12.73;11.50;;;;;;;5.86;71.27;96607.94;5051442;28;20225;-81
2021/04/13 06:42:37;;;;;;;12.87;11.57;;;;;;;5.82;71.75;96606.53;5046278;28;20224;-80
2021/04/13 06:45:29;;;;;;;13.10;11.77;;;;;;;5.71;72.22;96611.72;5051760;28;20241;-80
2021/04/13 06:48:27;;;;;;;12.70;11.50;;;;;;;5.76;71.70;96610.44;5028967;28;20225;-81
2021/04/13 06:51:02;;;;;;;13.47;12.07;;;;;;;5.84;71.11;96607.25;5031207;28;20234;-82
2021/04/13 06:53:48;;;;;;;13.73;12.33;;;;;;;5.89;70.82;96603.44;5030854;28;20229;-80
2021/04/13 06:56:26;;;;;;;13.17;11.77;;;;;;;5.89;71.46;96611.09;5031195;28;20303;-79
2021/04/13 06:59:15;;;;;;;14.13;12.63;;;;;;;5.92;71.75;96604.94;5050273;28;20197;-80
2021/04/13 07:01:48;;;;;;;13.97;12.37;;;;;;;6.01;71.88;96604.19;5036838;28;20461;-82
2021/04/13 07:04:18;;;;;;;13.83;12.03;;;;;;;6.06;71.68;96606.38;5038448;28;20198;-81
2021/04/13 07:06:48;;;;;;;15.37;13.40;;;;;;;5.94;71.06;96609.91;5049358;28;20584;-80
2021/04/13 07:09:22;;;;;;;14.37;12.97;;;;;;;5.92;72.26;96609.22;5039031;28;20221;-80
2021/04/13 07:12:01;;;;;;;14.40;12.90;;;;;;;5.77;74.23;96608.69;5045894;28;20225;-80
2021/04/13 07:14:33;;;;;;;15.57;13.80;;;;;;;5.76;73.71;96615.53;5046228;28;20253;-80
2021/04/13 07:17:02;;;;;;;16.00;14.30;;;;;;;5.71;74.51;96609.16;5050182;28;20233;-81
2021/04/13 07:19:34;;;;;;;16.50;13.80;;;;;;;5.87;72.76;96605.25;5031810;28;20207;-81
2021/04/13 07:22:06;;;;;;;15.47;13.87;;;;;;;5.91;73.00;96607.59;5050564;28;20612;-79
2021/04/13 07:24:41;;;;;;;15.77;14.07;;;;;;;6.05;73.77;96607.31;5050145;28;20236;-80
2021/04/13 07:27:12;;;;;;;15.73;13.93;;;;;;;6.18;72.00;96608.75;5033662;28;20704;-81
2021/04/13 07:29:44;;;;;;;16.13;14.43;;;;;;;6.31;72.07;96605.22;5050092;28;20263;-81
2021/04/13 07:32:13;;;;;;;16.67;15.07;;;;;;;6.29;72.02;96607.88;5050736;28;20233;-81
2021/04/13 07:34:41;;;;;;;15.70;14.20;;;;;;;6.41;69.84;96614.56;5046989;28;20217;-82
2021/04/13 07:37:16;;;;;;;16.17;14.57;;;;;;;6.47;71.34;96610.69;5050665;28;20236;-80
2021/04/13 07:39:45;;;;;;;16.83;15.07;;;;;;;6.52;70.97;96611.94;5039651;28;20221;-80
2021/04/13 07:42:18;;;;;;;16.50;14.80;;;;;;;6.51;70.66;96615.44;5031463;28;20279;-81
2021/04/13 07:45:03;;;;;;;17.73;15.83;;;;;;;6.61;70.29;96612.91;5047305;28;20225;-80
2021/04/13 07:47:53;;;;;;;16.43;14.77;;;;;;;6.63;70.66;96615.34;5050927;28;20278;-82
2021/04/13 07:50:32;;;;;;;16.53;14.57;;;;;;;6.63;71.31;96621.28;5049392;28;20240;-79
2021/04/13 07:53:02;;;;;;;16.37;14.77;;;;;;;6.75;70.92;96620.25;5050745;28;20208;-81
2021/04/13 07:55:37;;;;;;;14.70;13.20;;;;;;;6.70;70.15;96629.28;5045910;28;20218;-81
2021/04/13 07:58:12;;;;;;;13.13;11.83;;;;;;;6.64;70.71;96630.56;5043247;28;20768;-81
2021/04/13 08:00:46;;;;;;;13.00;11.70;;;;;;;6.56;70.37;96627.81;5050129;28;20232;-81
2021/04/13 08:03:20;;;;;;;12.90;11.77;;;;;;;6.59;70.18;96628.38;5038344;28;20225;-81
2021/04/13 08:05:48;;;;;;;12.70;11.50;;;;;;;6.55;68.93;96621.09;5030961;28;20225;-81
2021/04/13 08:08:24;;;;;;;13.07;11.77;;;;;;;6.35;70.85;96632.94;5031701;28;20299;-82
2021/04/13 08:10:50;;;;;;;13.93;12.47;;;;;;;6.36;70.64;96616.66;5031806;28;20198;-81
2021/04/13 08:13:29;;;;;;;13.00;11.80;;;;;;;6.38;71.45;96624.22;5040120;28;20248;-80
2021/04/13 08:15:56;;;;;;;13.43;12.13;;;;;;;6.54;70.81;96632.28;5050357;28;20240;-82
2021/04/13 08:18:33;;;;;;;13.83;12.40;;;;;;;6.65;70.27;96628.81;5041102;28;20221;-81
2021/04/13 08:21:24;;;;;;;14.03;12.63;;;;;;;6.80;69.79;96632.69;5028952;28;20214;-79
2021/04/13 08:23:52;;;;;;;15.13;12.33;;;;;;;6.86;69.53;96627.88;5030544;28;20780;-79
2021/04/13 08:26:40;;;;;;;12.93;11.63;;;;;;;7.06;69.01;96628.75;5029652;28;20237;-79
2021/04/13 08:29:16;;;;;;;13.00;11.70;;;;;;;7.20;68.36;96638.66;5040521;28;20230;-80
2021/04/13 08:35:01;;;;;;;13.13;11.93;;;;;;;7.11;67.20;96636.06;5050975;28;20344;-79
2021/04/13 08:37:54;;;;;;;12.93;11.73;;;;;;;7.20;66.98;96625.84;5050152;28;20225;-81
2021/04/13 08:40:32;;;;;;;13.37;12.07;;;;;;;7.27;66.25;96626.13;5045676;28;20776;-80
2021/04/13 08:43:10;;;;;;;13.03;11.83;;;;;;;7.24;65.45;96634.09;5050399;28;20237;-80
2021/04/13 08:45:40;;;;;;;13.83;12.57;;;;;;;7.22;65.92;96633.41;5034515;28;20222;-80
2021/04/13 08:48:16;;;;;;;12.30;11.20;;;;;;;7.27;64.51;96636.38;5033094;28;20226;-80
2021/04/13 08:50:45;;;;;;;12.70;11.27;;;;;;;7.14;63.44;96639.16;5050078;28;20240;-81
2021/04/13 08:53:28;;;;;;;11.40;10.33;;;;;;;7.23;64.20;96635.84;5033519;28;20250;-81
2021/04/13 08:56:05;;;;;;;10.47;9.57;;;;;;;7.53;63.47;96637.50;5031021;28;20348;-82
2021/04/13 08:58:42;;;;;;;11.33;10.20;;;;;;;7.79;62.76;96639.59;5050957;28;20709;-79
2021/04/13 09:01:29;;;;;;;11.23;10.13;;;;;;;7.95;62.57;96645.81;5037485;28;20236;-81
2021/04/13 09:03:57;;;;;;;10.97;9.97;;;;;;;8.15;62.15;96641.50;5040775;28;20217;-80
2021/04/13 09:06:31;;;;;;;11.60;9.40;;;;;;;8.16;59.83;96645.69;5052995;28;20229;-80
2021/04/13 09:09:05;;;;;;;10.30;9.33;;;;;;;8.35;59.78;96652.59;5032468;28;20286;-81
2021/04/13 09:11:45;;;;;;;10.47;9.57;;;;;;;8.76;58.91;96645.50;5042113;28;20225;-80
2021/04/13 09:14:23;;;;;;;10.37;9.47;;;;;;;9.00;58.12;96643.28;5053311;28;20225;-81
2021/04/13 09:16:58;;;;;;;10.27;9.37;;;;;;;9.16;57.35;96646.06;5049808;28;20209;-79
2021/04/13 09:19:39;;;;;;;10.33;9.40;;;;;;;9.45;56.17;96640.78;5051261;28;20695;-80
2021/04/13 09:22:20;;;;;;;9.17;8.43;;;;;;;9.52;54.52;96633.31;5033877;28;20230;-78
2021/04/13 09:24:54;;;;;;;9.53;8.63;;;;;;;9.60;56.76;96641.13;5033254;28;20268;-82
2021/04/13 09:27:36;;;;;;;8.93;8.13;;;;;;;9.35;54.03;96643.41;5037348;28;20226;-82
2021/04/13 09:30:24;;;;;;;9.50;8.33;;;;;;;9.35;54.98;96648.53;5032567;28;20596;-82
2021/04/13 09:33:02;;;;;;;8.63;7.83;;;;;;;9.31;55.80;96651.53;5049583;28;20240;-79
2021/04/13 09:36:01;;;;;;;9.10;8.30;;;;;;;9.18;54.57;96646.72;5052358;28;20237;-79
2021/04/13 09:38:42;;;;;;;8.93;8.10;;;;;;;9.10;54.64;96641.47;5053374;28;20279;-81
2021/04/13 09:41:19;;;;;;;8.40;7.70;;;;;;;9.01;55.49;96642.34;5036463;28;20582;-80
2021/04/13 09:44:08;;;;;;;8.13;7.33;;;;;;;8.87;55.24;96637.63;5032877;28;20308;-82
2021/04/13 09:46:55;;;;;;;8.60;7.70;;;;;;;8.84;55.31;96627.66;5046502;28;20756;-80
2021/04/13 09:49:46;;;;;;;8.10;7.40;;;;;;;8.87;54.44;96622.22;5032700;28;20217;-81
2021/04/13 09:52:39;;;;;;;8.37;7.63;;;;;;;9.07;53.82;96630.66;5033016;28;20218;-80
2021/04/13 09:55:18;;;;;;;7.73;7.03;;;;;;;9.33;53.94;96622.19;5038013;28;20226;-79
2021/04/13 09:57:58;;;;;;;7.83;7.13;;;;;;;9.47;53.15;96620.06;5053119;28;20236;-81
2021/04/13 10:00:57;;;;;;;7.57;6.87;;;;;;;9.48;52.40;96619.94;5032784;28;20229;-79
2021/04/13 10:04:00;;;;;;;7.67;6.97;;;;;;;9.53;53.35;96622.06;4951700;28;20236;-82
2021/04/13 10:06:37;;;;;;;6.77;6.27;;;;;;;9.32;52.51;96623.13;5048107;28;20312;-82
2021/04/13 10:09:07;;;;;;;7.27;6.67;;;;;;;9.19;53.10;96617.53;5051128;28;20236;-82
2021/04/13 10:12:01;;;;;;;7.53;6.93;;;;;;;9.12;53.12;96625.94;5049957;28;20303;-80
2021/04/13 10:15:02;;;;;;;7.30;6.60;;;;;;;9.01;54.33;96621.78;5046923;28;20228;-82
2021/04/13 10:17:40;;;;;;;7.60;6.90;;;;;;;8.85;54.40;96624.94;4998216;28;20247;-80
2021/04/13 10:20:26;;;;;;;6.57;6.00;;;;;;;8.54;53.52;96619.22;5032066;28;20241;-82
2021/04/13 10:23:18;;;;;;;6.87;6.27;;;;;;;8.15;55.58;96620.16;5041605;28;20210;-80
2021/04/13 10:26:28;;;;;;;7.70;6.67;;;;;;;8.13;55.91;96616.94;5041224;28;20278;-82
2021/04/13 10:29:27;;;;;;;7.53;6.80;;;;;;;8.14;56.26;96613.41;5039425;28;20248;-82
2021/04/13 10:32:31;;;;;;;7.10;6.50;;;;;;;8.18;56.33;96618.16;5037705;28;20222;-82
2021/04/13 10:35:20;;;;;;;7.13;5.90;;;;;;;8.24;55.13;96604.78;5045100;28;20381;-81
2021/04/13 10:38:32;;;;;;;6.67;6.17;;;;;;;8.10;55.77;96614.63;5039340;28;20197;-81
2021/04/13 10:41:58;;;;;;;6.40;5.80;;;;;;;8.07;55.59;96610.59;5032507;28;20217;-80
2021/04/13 10:44:54;;;;;;;6.30;5.80;;;;;;;7.97;54.30;96605.47;4950241;28;20241;-81
2021/04/13 10:47:57;;;;;;;5.57;5.17;;;;;;;8.02;53.20;96601.69;4962870;28;20227;-81
2021/04/13 10:50:45;;;;;;;5.67;5.20;;;;;;;8.03;54.90;96606.69;5030674;28;20260;-82
2021/04/13 10:53:23;;;;;;;6.00;5.37;;;;;;;8.10;54.72;96601.81;5046014;28;20237;-83
2021/04/13 10:56:10;;;;;;;5.67;5.17;;;;;;;8.21;53.46;96599.91;5051949;28;20265;-82
2021/04/13 10:59:05;;;;;;;5.30;4.80;;;;;;;8.40;53.63;96598.31;5044288;28;20201;-82
2021/04/13 11:02:15;;;;;;;5.23;4.83;;;;;;;8.45;53.72;96596.94;5038702;28;20232;-80
2021/04/13 11:05:32;;;;;;;5.70;5.20;;;;;;;8.55;53.56;96590.03;5000015;28;20218;-81
2021/04/13 11:08:49;;;;;;;6.10;5.50;;;;;;;8.44;52.91;96590.19;5031446;28;20272;-81
2021/04/13 11:12:03;;;;;;;5.90;5.40;;;;;;;8.46;53.66;96587.50;5047390;28;20298;-82
2021/04/13 11:15:11;;;;;;;5.67;5.17;;;;;;;8.56;52.86;96580.56;5050299;28;20712;-82
2021/04/13 11:17:59;;;;;;;6.33;5.73;;;;;;;8.63;51.28;96584.22;5010733;28;20256;-81
2021/04/13 11:20:35;;;;;;;6.00;5.50;;;;;;;8.60;51.91;96582.72;5042084;28;20230;-81
2021/04/13 11:23:40;;;;;;;5.57;5.07;;;;;;;8.65;52.54;96583.13;5031459;28;20316;-82
2021/04/13 11:26:52;;;;;;;5.60;5.10;;;;;;;8.69;52.34;96575.94;5040572;28;20236;-82
2021/04/13 11:30:01;;;;;;;5.40;4.90;;;;;;;8.74;52.95;96572.94;5030844;28;20229;-81
2021/04/13 11:32:43;;;;;;;5.10;4.70;;;;;;;8.79;50.13;96569.00;5050171;28;20233;-80
2021/04/13 11:35:18;;;;;;;5.50;5.00;;;;;;;8.84;50.04;96568.59;5044389;28;20641;-82
2021/04/13 11:38:09;;;;;;;5.07;4.67;;;;;;;9.05;49.28;96561.44;5048689;28;20200;-82
2021/04/13 11:40:50;;;;;;;4.83;4.43;;;;;;;9.19;48.34;96561.00;5040329;28;20199;-81
2021/04/13 11:43:21;;;;;;;4.70;4.30;;;;;;;9.34;48.86;96554.41;5031386;28;20221;-82
2021/04/13 11:45:57;;;;;;;5.27;4.57;;;;;;;9.38;47.41;96549.78;5040116;28;20222;-80
2021/04/13 11:48:30;;;;;;;4.77;4.07;;;;;;;9.44;46.87;96550.94;5031002;28;20232;-80
2021/04/13 11:51:02;;;;;;;4.33;3.93;;;;;;;9.35;46.23;96550.88;5042215;28;20229;-81
2021/04/13 11:53:34;;;;;;;4.30;3.90;;;;;;;9.36;46.44;96546.56;5048721;28;20282;-80
2021/04/13 11:56:01;;;;;;;3.93;3.63;;;;;;;9.38;45.85;96552.34;5036344;28;20209;-81
2021/04/13 11:58:32;;;;;;;3.60;3.30;;;;;;;9.51;56.23;96549.41;5031867;28;20592;-81
2021/04/13 12:01:31;;;;;;;5.60;3.83;;;;;;;9.52;45.53;96549.28;5050479;28;20248;-79
2021/04/13 12:03:59;;;;;;;3.73;3.43;;;;;;;9.47;44.48;96558.38;5046961;28;20217;-80
2021/04/13 12:06:51;;;;;;;3.70;3.40;;;;;;;9.08;45.21;96557.78;5043581;28;20245;-79
2021/04/13 12:09:39;;;;;;;4.03;3.63;;;;;;;8.59;47.29;96564.91;5030957;28;20245;-80
2021/04/13 12:12:06;;;;;;;5.30;3.27;;;;;;;8.35;47.72;96572.25;5038112;28;20312;-81
2021/04/13 12:14:43;;;;;;;4.63;3.50;;;;;;;8.04;48.31;96574.16;5046335;28;20221;-79
2021/04/13 12:17:25;;;;;;;3.90;3.20;;;;;;;8.01;48.72;96575.22;5036754;28;20268;-82
2021/04/13 12:20:22;;;;;;;5.97;4.03;;;;;;;8.00;48.37;96578.75;5038223;28;20191;-81
2021/04/13 12:22:48;;;;;;;3.87;3.50;;;;;;;7.75;49.62;96581.84;5038351;28;20304;-79